メインページ
METAR-TAF:

METAR-TAF

空港 :

リフカ島空港

リフカ島, トンガ

緯度: 19-46-36S, 経度: 174-20-28W, 海抜: 9m

現時点の気象観測

当レポートは2時間46分前の21:00(UTC)に作成
変向風 2kt
気温 28°C
湿度 84%
気圧 1010 hPa
視程10km以上
高度1800ftの雲は散在している, 塔状積雲.

METAR: NFTL 182100Z VRB02KT 9999 SCT018TCU 28/25 Q1010

時間: 12:46 (23:46 UTC)


TAF: 見つかりません

4,000以上の空港の気象観測と天気予報(METAR報とTAF報)

利用可能な観測所は地図上に黄色い丸と赤い丸で示す。

丸の上にカーソルを重ねると観測所名を参照できる。

次にクリックすると気象観測と天気予報を参照できる。

マップの切り替え:黒色「×」印の緑ボタンをクリックして拡大、「-」印の緑ボタンをクリックして縮小、緑色の三角印をクリックして隣りの地図に切り替え


METAR-TAF: